Amidon, North Dakota
Current Conditions -  °F | °C
As of 2:10 AM on Thursday 27 Nov 2014 (Local Time) from KDIK Reporting Station
Few Clouds Few Clouds  
Wind Chill: -5°   Ceiling: Unl
Heat Index: 11°   Visibility: 10mi
Dew Point:   Wind: 15mph
Humidity: 84%   Direction: 160°SSE
Pressure: 30.24"   Gusts: NA
Location:  46.48°N, 103.32°W
Report Text: KDIK 270910Z AUTO 16013KT 10SM FEW005 M12/M14 A3024 RMK AO2 T11171139
Loading
Personal Weather Stations






























Interactive Weather Map New forecast layout! Learn more

10-Day Weather Forecast

Advertisements
Track Severe Weather on mobile